Isit, Russia
Current Conditions -  °F | °C
As of 7:30 AM on Sunday 26 Oct 2014 (Local Time) from UEEE Reporting Station
Clear Clear  
Wind Chill:   Ceiling: Unl
Heat Index:   Visibility: 6mi
Dew Point: -2°   Wind: 0mph
Humidity: 92%   Direction: NA
Pressure: 30.48"   Gusts: NA
Location:  60.82°N, 125.34°E
Report Text: UEEE 252230Z 00000MPS CAVOK M18/M19 Q1032 NOSIG RMK QFE76523490150
Loading
Personal Weather Stations






























Interactive Weather Map
Tropical Storm Tracking
New forecast layout! Learn more

10-Day Weather Forecast

Advertisements
Track Severe Weather on mobile